createdAt,value
2022-12-01T00:00:37.366Z,926.97
2022-12-01T00:01:37.477Z,927.00
2022-12-01T00:02:37.472Z,927.00
2022-12-01T00:03:37.414Z,927.01
2022-12-01T00:04:37.420Z,927.05
2022-12-01T00:05:37.437Z,926.99
2022-12-01T00:06:37.452Z,927.00
2022-12-01T00:07:37.537Z,926.98
2022-12-01T00:08:37.483Z,927.02
2022-12-01T00:09:37.499Z,927.07
2022-12-01T00:10:37.522Z,927.11
2022-12-01T00:11:37.541Z,927.13
2022-12-01T00:12:37.545Z,927.09
2022-12-01T00:13:37.571Z,927.06
2022-12-01T00:14:37.586Z,927.05
2022-12-01T00:15:37.600Z,926.99
2022-12-01T00:16:37.667Z,926.97
2022-12-01T00:17:38.052Z,926.98
2022-12-01T00:18:37.642Z,927.06
2022-12-01T00:19:37.664Z,927.07
2022-12-01T00:20:37.680Z,927.06
2022-12-01T00:21:37.698Z,927.08
2022-12-01T00:22:37.704Z,927.15
2022-12-01T00:23:37.726Z,927.16
2022-12-01T00:24:37.735Z,927.17
2022-12-01T00:25:37.753Z,927.23
2022-12-01T00:26:37.768Z,927.20
2022-12-01T00:27:37.785Z,927.22
2022-12-01T00:28:37.806Z,927.23
2022-12-01T00:29:37.822Z,927.20
2022-12-01T00:30:37.841Z,927.25
2022-12-01T00:31:37.932Z,927.23
2022-12-01T00:32:37.868Z,927.23
2022-12-01T00:33:37.909Z,927.21
2022-12-01T00:34:37.902Z,927.20
2022-12-01T00:35:37.911Z,927.22
2022-12-01T00:36:37.935Z,927.28
2022-12-01T00:37:37.948Z,927.29
2022-12-01T00:38:37.963Z,927.32
2022-12-01T00:39:37.981Z,927.33
2022-12-01T00:40:37.996Z,927.36
2022-12-01T00:41:38.011Z,927.39
2022-12-01T00:42:38.032Z,927.48
2022-12-01T00:43:38.036Z,927.47
2022-12-01T00:44:38.054Z,927.49
2022-12-01T00:45:38.136Z,927.53
2022-12-01T00:46:38.083Z,927.47
2022-12-01T00:47:38.099Z,927.43
2022-12-01T00:48:38.124Z,927.45
2022-12-01T00:49:38.157Z,927.40
2022-12-01T00:50:38.147Z,927.43
2022-12-01T00:51:38.171Z,927.38
2022-12-01T00:52:38.178Z,927.37
2022-12-01T00:53:38.201Z,927.38
2022-12-01T00:54:38.217Z,927.38
2022-12-01T00:55:38.228Z,927.34
2022-12-01T00:56:38.241Z,927.31
2022-12-01T00:57:38.263Z,927.33
2022-12-01T00:58:38.279Z,927.27
2022-12-01T00:59:38.295Z,927.24
2022-12-01T01:00:38.311Z,927.22
2022-12-01T01:01:38.408Z,927.20
2022-12-01T01:02:38.435Z,927.24
2022-12-01T01:03:38.358Z,927.24
2022-12-01T01:04:38.374Z,927.27
2022-12-01T01:05:38.400Z,927.30
2022-12-01T01:06:38.408Z,927.33
2022-12-01T01:07:38.478Z,927.36
2022-12-01T01:08:38.430Z,927.35
2022-12-01T01:09:38.444Z,927.32
2022-12-01T01:10:38.468Z,927.31
2022-12-01T01:11:38.479Z,927.28
2022-12-01T01:12:38.491Z,927.21
2022-12-01T01:13:38.508Z,927.23
2022-12-01T01:14:38.525Z,927.22
2022-12-01T01:15:38.539Z,927.17
2022-12-01T01:16:38.609Z,927.21
2022-12-01T01:17:38.578Z,927.21
2022-12-01T01:18:38.587Z,927.22
2022-12-01T01:19:38.603Z,927.22
2022-12-01T01:20:38.618Z,927.15
2022-12-01T01:21:38.661Z,927.14
2022-12-01T01:22:38.657Z,927.15
2022-12-01T01:23:38.665Z,927.14
2022-12-01T01:24:38.681Z,927.19
2022-12-01T01:25:38.697Z,927.19
2022-12-01T01:26:38.714Z,927.21
2022-12-01T01:27:38.738Z,927.22
2022-12-01T01:28:38.750Z,927.23
2022-12-01T01:29:38.759Z,927.15
2022-12-01T01:30:38.834Z,927.11
2022-12-01T01:31:38.792Z,927.13
2022-12-01T01:32:38.814Z,927.12
2022-12-01T01:33:38.823Z,927.09
2022-12-01T01:34:38.845Z,927.19
2022-12-01T01:35:38.862Z,927.13
2022-12-01T01:36:38.877Z,927.17
2022-12-01T01:37:38.903Z,927.12
2022-12-01T01:38:38.906Z,927.13
2022-12-01T01:39:38.916Z,927.13
2022-12-01T01:40:38.932Z,927.11
2022-12-01T01:41:38.948Z,927.10
2022-12-01T01:42:38.968Z,927.16
2022-12-01T01:43:38.980Z,927.18
2022-12-01T01:44:39.003Z,927.17
2022-12-01T01:45:39.052Z,927.16
2022-12-01T01:46:39.028Z,927.20
2022-12-01T01:47:39.048Z,927.17
2022-12-01T01:48:39.065Z,927.18
2022-12-01T01:49:39.084Z,927.23
2022-12-01T01:50:39.088Z,927.22
2022-12-01T01:51:39.104Z,927.23
2022-12-01T01:52:39.118Z,927.25
2022-12-01T01:53:39.166Z,927.33
2022-12-01T01:54:39.158Z,927.30
2022-12-01T01:55:39.178Z,927.29
2022-12-01T01:56:39.182Z,927.30
2022-12-01T01:57:39.205Z,927.26
2022-12-01T01:58:39.221Z,927.19
2022-12-01T01:59:39.230Z,927.19
2022-12-01T02:00:39.245Z,927.17
2022-12-01T02:01:39.400Z,927.23
2022-12-01T02:02:39.326Z,927.16
2022-12-01T02:03:39.300Z,927.13
2022-12-01T02:04:39.315Z,927.11
2022-12-01T02:05:39.323Z,927.08
2022-12-01T02:06:39.346Z,927.00
2022-12-01T02:07:39.392Z,926.96
2022-12-01T02:08:39.371Z,926.95
2022-12-01T02:09:39.414Z,926.98
2022-12-01T02:10:39.401Z,926.98
2022-12-01T02:11:39.418Z,926.96
2022-12-01T02:12:39.440Z,926.95
2022-12-01T02:13:39.448Z,926.90
2022-12-01T02:14:39.471Z,926.90
2022-12-01T02:15:39.489Z,926.84
2022-12-01T02:16:39.606Z,926.84
2022-12-01T02:17:41.849Z,926.82
2022-12-01T02:18:39.536Z,926.81
2022-12-01T02:19:39.550Z,926.86
2022-12-01T02:20:39.558Z,926.88
2022-12-01T02:21:39.582Z,926.84
2022-12-01T02:22:39.597Z,926.90
2022-12-01T02:23:39.615Z,926.91
2022-12-01T02:24:39.630Z,926.90
2022-12-01T02:25:39.660Z,926.85
2022-12-01T02:26:39.653Z,926.87
2022-12-01T02:27:39.668Z,926.89
2022-12-01T02:28:39.689Z,926.87
2022-12-01T02:29:39.711Z,926.88
2022-12-01T02:30:39.826Z,926.91
2022-12-01T02:31:39.737Z,926.87
2022-12-01T02:32:39.745Z,926.87
2022-12-01T02:33:39.769Z,926.80
2022-12-01T02:34:39.784Z,926.83
2022-12-01T02:35:39.793Z,926.80
2022-12-01T02:36:39.815Z,926.81
2022-12-01T02:37:39.822Z,926.84
2022-12-01T02:38:39.837Z,926.85
2022-12-01T02:39:39.865Z,926.81
2022-12-01T02:40:39.877Z,926.84
2022-12-01T02:41:39.909Z,926.81
2022-12-01T02:42:39.910Z,926.82
2022-12-01T02:43:39.918Z,926.85
2022-12-01T02:44:39.940Z,926.82
2022-12-01T02:45:40.055Z,926.81
2022-12-01T02:46:39.963Z,926.78
2022-12-01T02:47:39.982Z,926.79
2022-12-01T02:48:39.995Z,926.77
2022-12-01T02:49:40.024Z,926.77
2022-12-01T02:50:40.025Z,926.72
2022-12-01T02:51:40.042Z,926.70
2022-12-01T02:52:40.056Z,926.67
2022-12-01T02:53:40.080Z,926.69
2022-12-01T02:54:40.089Z,926.63
2022-12-01T02:55:40.104Z,926.60
2022-12-01T02:56:40.125Z,926.58
2022-12-01T02:57:40.166Z,926.61
2022-12-01T02:58:40.159Z,926.57
2022-12-01T02:59:40.174Z,926.58
2022-12-01T03:00:40.183Z,926.57
2022-12-01T03:01:40.287Z,926.52
2022-12-01T03:02:40.274Z,926.48
2022-12-01T03:03:40.236Z,926.45
2022-12-01T03:04:40.250Z,926.44
2022-12-01T03:05:40.259Z,926.41
2022-12-01T03:06:40.276Z,926.43
2022-12-01T03:07:40.336Z,926.47
2022-12-01T03:08:40.307Z,926.48
2022-12-01T03:09:40.328Z,926.50
2022-12-01T03:10:40.337Z,926.56
2022-12-01T03:11:40.358Z,926.57
2022-12-01T03:12:40.375Z,926.59
2022-12-01T03:13:40.402Z,926.61
2022-12-01T03:14:40.400Z,926.58
2022-12-01T03:15:40.474Z,926.63
2022-12-01T03:16:40.437Z,926.57
2022-12-01T03:17:40.452Z,926.61
2022-12-01T03:18:40.460Z,926.64
2022-12-01T03:19:40.485Z,926.69
2022-12-01T03:20:40.500Z,926.66
2022-12-01T03:21:40.507Z,926.62
2022-12-01T03:22:40.533Z,926.58
2022-12-01T03:23:40.547Z,926.58
2022-12-01T03:24:40.554Z,926.51
2022-12-01T03:25:40.570Z,926.51
2022-12-01T03:26:40.584Z,926.54
2022-12-01T03:27:44.179Z,926.58
2022-12-01T03:28:40.624Z,926.62
2022-12-01T03:29:40.651Z,926.65
2022-12-01T03:30:40.657Z,926.69
2022-12-01T03:31:40.884Z,926.67
2022-12-01T03:32:40.684Z,926.64
2022-12-01T03:33:40.694Z,926.64
2022-12-01T03:34:40.718Z,926.59
2022-12-01T03:35:40.726Z,926.56
2022-12-01T03:36:40.749Z,926.57
2022-12-01T03:37:40.763Z,926.51
2022-12-01T03:38:40.772Z,926.46
2022-12-01T03:39:40.793Z,926.44
2022-12-01T03:40:40.811Z,926.40
2022-12-01T03:41:40.821Z,926.42
2022-12-01T03:42:40.841Z,926.42
2022-12-01T03:43:40.859Z,926.37
2022-12-01T03:44:40.875Z,926.36
2022-12-01T03:45:40.911Z,926.35
2022-12-01T03:46:40.988Z,926.36
2022-12-01T03:47:40.929Z,926.32
2022-12-01T03:48:40.924Z,926.27
2022-12-01T03:49:40.948Z,926.28
2022-12-01T03:50:40.965Z,926.29
2022-12-01T03:51:40.975Z,926.30
2022-12-01T03:52:40.996Z,926.32
2022-12-01T03:53:41.013Z,926.33
2022-12-01T03:54:41.027Z,926.36
2022-12-01T03:55:41.043Z,926.37
2022-12-01T03:56:41.057Z,926.35
2022-12-01T03:57:41.066Z,926.34
2022-12-01T03:58:41.082Z,926.33
2022-12-01T03:59:41.106Z,926.30
2022-12-01T04:00:41.112Z,926.32
2022-12-01T04:01:41.175Z,926.28
2022-12-01T04:02:41.245Z,926.26
2022-12-01T04:03:41.167Z,926.24
2022-12-01T04:04:41.173Z,926.22
2022-12-01T04:05:41.197Z,926.22
2022-12-01T04:06:41.212Z,926.17
2022-12-01T04:07:41.277Z,926.21
2022-12-01T04:08:41.248Z,926.23
2022-12-01T04:09:41.259Z,926.13
2022-12-01T04:10:41.276Z,926.14
2022-12-01T04:11:41.281Z,926.14
2022-12-01T04:12:41.298Z,926.15
2022-12-01T04:13:41.313Z,926.10
2022-12-01T04:14:41.329Z,926.11
2022-12-01T04:15:41.394Z,926.15
2022-12-01T04:16:41.359Z,926.14
2022-12-01T04:17:41.401Z,926.12
2022-12-01T04:18:41.399Z,926.09
2022-12-01T04:19:41.411Z,926.11
2022-12-01T04:20:41.429Z,926.09
2022-12-01T04:21:41.436Z,926.08
2022-12-01T04:22:41.460Z,926.15
2022-12-01T04:23:41.468Z,926.09
2022-12-01T04:24:41.482Z,926.13
2022-12-01T04:25:41.506Z,926.16
2022-12-01T04:26:41.521Z,926.16
2022-12-01T04:27:41.547Z,926.18
2022-12-01T04:28:41.551Z,926.22
2022-12-01T04:29:41.567Z,926.19
2022-12-01T04:30:41.582Z,926.23
2022-12-01T04:31:41.699Z,926.23
2022-12-01T04:32:41.613Z,926.28
2022-12-01T04:33:41.640Z,926.31
2022-12-01T04:34:41.646Z,926.35
2022-12-01T04:35:41.654Z,926.33
2022-12-01T04:36:41.674Z,926.31
2022-12-01T04:37:41.681Z,926.31
2022-12-01T04:38:41.706Z,926.26
2022-12-01T04:39:41.716Z,926.22
2022-12-01T04:40:41.736Z,926.27
2022-12-01T04:41:41.752Z,926.28
2022-12-01T04:42:41.768Z,926.25
2022-12-01T04:43:41.782Z,926.26
2022-12-01T04:44:41.791Z,926.22
2022-12-01T04:45:41.816Z,926.21
2022-12-01T04:46:41.905Z,926.20
2022-12-01T04:47:41.845Z,926.16
2022-12-01T04:48:41.854Z,926.15
2022-12-01T04:49:41.892Z,926.14
2022-12-01T04:50:41.883Z,926.15
2022-12-01T04:51:41.899Z,926.16
2022-12-01T04:52:41.914Z,926.19
2022-12-01T04:53:41.928Z,926.19
2022-12-01T04:54:41.943Z,926.23
2022-12-01T04:55:41.960Z,926.25
2022-12-01T04:56:41.981Z,926.23
2022-12-01T04:57:42.001Z,926.23
2022-12-01T04:58:42.020Z,926.24
2022-12-01T04:59:42.022Z,926.24
2022-12-01T05:00:42.093Z,926.21
2022-12-01T05:01:42.096Z,926.20
2022-12-01T05:02:42.070Z,926.17
2022-12-01T05:03:42.084Z,926.18
2022-12-01T05:04:42.098Z,926.17
2022-12-01T05:05:42.144Z,926.12
2022-12-01T05:06:42.135Z,926.11
2022-12-01T05:07:42.275Z,926.06
2022-12-01T05:08:42.166Z,926.08
2022-12-01T05:09:42.175Z,926.03
2022-12-01T05:10:42.190Z,926.06
2022-12-01T05:11:42.206Z,926.05
2022-12-01T05:12:42.223Z,926.01
2022-12-01T05:13:42.242Z,926.01
2022-12-01T05:14:42.251Z,925.94
2022-12-01T05:15:42.274Z,925.94
2022-12-01T05:16:42.393Z,925.98
2022-12-01T05:17:42.297Z,925.98
2022-12-01T05:18:42.428Z,925.98
2022-12-01T05:19:42.335Z,926.02
2022-12-01T05:20:42.343Z,926.06
2022-12-01T05:21:42.379Z,926.02
2022-12-01T05:23:04.821Z,926.02
2022-12-01T05:23:42.389Z,925.98
2022-12-01T05:24:42.410Z,926.01
2022-12-01T05:25:42.426Z,926.05
2022-12-01T05:26:42.441Z,926.05
2022-12-01T05:27:42.458Z,926.07
2022-12-01T05:28:42.471Z,926.11
2022-12-01T05:29:42.486Z,926.08
2022-12-01T05:30:42.506Z,926.10
2022-12-01T05:31:42.662Z,926.09
2022-12-01T05:32:42.525Z,926.05
2022-12-01T05:33:42.554Z,926.04
2022-12-01T05:34:42.556Z,926.07
2022-12-01T05:35:42.580Z,926.05
2022-12-01T05:36:42.593Z,926.07
2022-12-01T05:37:42.620Z,926.06
2022-12-01T05:38:42.618Z,926.04
2022-12-01T05:39:42.640Z,926.08
2022-12-01T05:40:42.647Z,926.03
2022-12-01T05:41:42.670Z,926.04
2022-12-01T05:42:42.688Z,926.04
2022-12-01T05:43:42.702Z,926.08
2022-12-01T05:44:42.716Z,926.04
2022-12-01T05:45:42.804Z,926.06
2022-12-01T05:46:42.739Z,926.04
2022-12-01T05:47:42.764Z,926.02
2022-12-01T05:48:42.770Z,926.00
2022-12-01T05:49:42.873Z,925.98
2022-12-01T05:50:42.800Z,925.99
2022-12-01T05:51:42.815Z,925.96
2022-12-01T05:52:42.837Z,925.93
2022-12-01T05:53:42.870Z,925.91
2022-12-01T05:54:42.895Z,925.91
2022-12-01T05:55:42.886Z,925.93
2022-12-01T05:56:42.891Z,925.95
2022-12-01T05:57:42.913Z,925.93
2022-12-01T05:58:42.921Z,925.87
2022-12-01T05:59:42.947Z,925.87
2022-12-01T06:00:45.973Z,925.86
2022-12-01T06:01:43.015Z,925.82
2022-12-01T06:02:42.982Z,925.85
2022-12-01T06:03:43.108Z,925.81
2022-12-01T06:04:43.012Z,925.82
2022-12-01T06:05:43.030Z,925.84
2022-12-01T06:06:43.043Z,925.86
2022-12-01T06:07:43.134Z,925.88
2022-12-01T06:08:43.078Z,925.87
2022-12-01T06:09:43.107Z,925.89
2022-12-01T06:10:43.105Z,925.88
2022-12-01T06:11:43.121Z,925.85
2022-12-01T06:12:43.139Z,925.84
2022-12-01T06:13:43.149Z,925.82
2022-12-01T06:14:43.178Z,925.80
2022-12-01T06:15:43.187Z,925.78
2022-12-01T06:16:43.227Z,925.78
2022-12-01T06:17:43.216Z,925.75
2022-12-01T06:18:43.224Z,925.72
2022-12-01T06:19:43.241Z,925.72
2022-12-01T06:20:43.254Z,925.74
2022-12-01T06:21:43.276Z,925.72
2022-12-01T06:22:43.285Z,925.75
2022-12-01T06:23:43.307Z,925.72
2022-12-01T06:24:43.315Z,925.77
2022-12-01T06:25:43.369Z,925.76
2022-12-01T06:26:43.353Z,925.76
2022-12-01T06:27:43.369Z,925.80
2022-12-01T06:28:43.374Z,925.78
2022-12-01T06:29:43.391Z,925.79
2022-12-01T06:30:43.412Z,925.79
2022-12-01T06:31:43.475Z,925.84
2022-12-01T06:32:43.438Z,925.84
2022-12-01T06:33:43.458Z,925.87
2022-12-01T06:34:43.465Z,925.85
2022-12-01T06:35:43.489Z,925.86
2022-12-01T06:36:43.505Z,925.91
2022-12-01T06:37:43.514Z,925.88
2022-12-01T06:38:43.527Z,925.89
2022-12-01T06:39:43.542Z,925.91
2022-12-01T06:40:43.557Z,925.96
2022-12-01T06:41:43.594Z,925.99
2022-12-01T06:42:43.595Z,926.00
2022-12-01T06:43:43.602Z,926.01
2022-12-01T06:44:43.617Z,926.04
2022-12-01T06:45:43.672Z,926.06
2022-12-01T06:46:43.648Z,926.06
2022-12-01T06:47:43.672Z,926.06
2022-12-01T06:48:43.677Z,926.08
2022-12-01T06:49:43.693Z,926.07
2022-12-01T06:50:43.715Z,926.10
2022-12-01T06:51:43.725Z,926.09
2022-12-01T06:52:43.737Z,926.14
2022-12-01T06:53:43.753Z,926.13
2022-12-01T06:54:43.776Z,926.13
2022-12-01T06:55:43.791Z,926.12
2022-12-01T06:56:43.805Z,926.12
2022-12-01T06:57:43.838Z,926.15
2022-12-01T06:58:43.836Z,926.17
2022-12-01T06:59:43.862Z,926.15
2022-12-01T07:00:48.983Z,926.19
2022-12-01T07:01:43.938Z,926.16
2022-12-01T07:02:44.023Z,926.22
2022-12-01T07:03:43.906Z,926.25
2022-12-01T07:04:43.924Z,926.24
2022-12-01T07:05:43.934Z,926.23
2022-12-01T07:06:43.951Z,926.20
2022-12-01T07:07:44.011Z,926.22
2022-12-01T07:08:43.979Z,926.23
2022-12-01T07:09:44.001Z,926.27
2022-12-01T07:10:44.017Z,926.23
2022-12-01T07:11:44.025Z,926.30
2022-12-01T07:12:44.047Z,926.33
2022-12-01T07:13:44.085Z,926.35
2022-12-01T07:14:44.075Z,926.34
2022-12-01T07:15:44.093Z,926.35
2022-12-01T07:16:44.175Z,926.33
2022-12-01T07:17:44.132Z,926.31
2022-12-01T07:18:44.139Z,926.31
2022-12-01T07:19:44.153Z,926.35
2022-12-01T07:20:44.168Z,926.33
2022-12-01T07:21:44.176Z,926.32
2022-12-01T07:22:44.198Z,926.33
2022-12-01T07:23:44.205Z,926.35
2022-12-01T07:24:44.229Z,926.39
2022-12-01T07:25:44.241Z,926.43
2022-12-01T07:26:44.252Z,926.49
2022-12-01T07:27:44.271Z,926.47
2022-12-01T07:28:44.287Z,926.50
2022-12-01T07:29:44.327Z,926.47
2022-12-01T07:30:44.387Z,926.49
2022-12-01T07:31:44.334Z,926.54
2022-12-01T07:32:44.339Z,926.55
2022-12-01T07:33:44.362Z,926.56
2022-12-01T07:34:44.378Z,926.62
2022-12-01T07:35:44.393Z,926.60
2022-12-01T07:36:44.400Z,926.64
2022-12-01T07:37:44.423Z,926.73
2022-12-01T07:38:44.428Z,926.72
2022-12-01T07:39:44.453Z,926.76
2022-12-01T07:40:44.467Z,926.79
2022-12-01T07:41:44.473Z,926.83
2022-12-01T07:42:44.499Z,926.86
2022-12-01T07:43:44.514Z,926.85
2022-12-01T07:44:44.527Z,926.91
2022-12-01T07:45:44.589Z,926.94
2022-12-01T07:46:44.638Z,926.99
2022-12-01T07:47:44.577Z,927.00
2022-12-01T07:48:44.581Z,926.98
2022-12-01T07:49:44.622Z,927.05
2022-12-01T07:50:44.613Z,927.09
2022-12-01T07:51:44.633Z,927.07
2022-12-01T07:52:44.648Z,927.15
2022-12-01T07:53:44.655Z,927.19
2022-12-01T07:54:44.677Z,927.20
2022-12-01T07:55:44.695Z,927.27
2022-12-01T07:56:44.700Z,927.32
2022-12-01T07:57:44.734Z,927.36
2022-12-01T07:58:44.730Z,927.48
2022-12-01T07:59:44.751Z,927.55
2022-12-01T08:00:44.767Z,927.73
2022-12-01T08:01:45.064Z,927.95
2022-12-01T08:02:44.827Z,928.16
2022-12-01T08:03:44.813Z,928.36
2022-12-01T08:04:45.028Z,928.47
2022-12-01T08:05:44.836Z,928.53
2022-12-01T08:06:44.857Z,928.51
2022-12-01T08:07:44.925Z,928.43
2022-12-01T08:08:44.879Z,928.32
2022-12-01T08:09:44.902Z,928.35
2022-12-01T08:10:44.909Z,928.50
2022-12-01T08:11:44.925Z,928.60
2022-12-01T08:12:44.946Z,928.60
2022-12-01T08:13:44.957Z,928.58
2022-12-01T08:14:44.970Z,928.55
2022-12-01T08:15:45.021Z,928.53
2022-12-01T08:16:44.998Z,928.51
2022-12-01T08:17:45.040Z,928.58
2022-12-01T08:18:45.029Z,928.54
2022-12-01T08:19:45.051Z,928.48
2022-12-01T08:20:45.059Z,928.46
2022-12-01T08:21:45.072Z,928.44
2022-12-01T08:22:45.097Z,928.41
2022-12-01T08:23:45.111Z,928.38
2022-12-01T08:24:45.125Z,928.37
2022-12-01T08:25:45.133Z,928.34
2022-12-01T08:26:45.149Z,928.26
2022-12-01T08:27:45.173Z,928.22
2022-12-01T08:28:45.185Z,928.24
2022-12-01T08:29:45.201Z,928.25
2022-12-01T08:30:45.255Z,928.25
2022-12-01T08:31:45.223Z,928.27
2022-12-01T08:32:45.243Z,928.31
2022-12-01T08:33:45.279Z,928.33
2022-12-01T08:34:49.341Z,928.33
2022-12-01T08:35:45.282Z,928.33
2022-12-01T08:36:45.300Z,928.32
2022-12-01T08:37:45.314Z,928.34
2022-12-01T08:38:45.337Z,928.37
2022-12-01T08:39:45.341Z,928.38
2022-12-01T08:40:45.364Z,928.40
2022-12-01T08:41:45.380Z,928.40
2022-12-01T08:42:45.394Z,928.38
2022-12-01T08:44:01.687Z,928.38
2022-12-01T08:44:45.524Z,928.39
2022-12-01T08:45:45.432Z,928.40
2022-12-01T08:46:45.463Z,928.43
2022-12-01T08:47:45.465Z,928.43
2022-12-01T08:48:45.475Z,928.43
2022-12-01T08:49:45.521Z,928.41
2022-12-01T08:50:45.512Z,928.42
2022-12-01T08:51:45.531Z,928.43
2022-12-01T08:52:45.536Z,928.45
2022-12-01T08:53:45.891Z,928.46
2022-12-01T08:54:45.574Z,928.46
2022-12-01T08:55:45.589Z,928.45
2022-12-01T08:56:45.602Z,928.44
2022-12-01T08:57:45.620Z,928.45
2022-12-01T08:58:45.636Z,928.45
2022-12-01T08:59:45.641Z,928.44
2022-12-01T09:00:45.663Z,928.41
2022-12-01T09:01:45.740Z,928.41
2022-12-01T09:02:45.737Z,928.37
2022-12-01T09:03:45.700Z,928.37
2022-12-01T09:04:45.722Z,928.32
2022-12-01T09:05:45.752Z,928.31
2022-12-01T09:06:45.745Z,928.29
2022-12-01T09:07:45.833Z,928.26
2022-12-01T09:08:45.782Z,928.26
2022-12-01T09:09:45.932Z,928.18
2022-12-01T09:10:45.812Z,928.14
2022-12-01T09:11:45.826Z,928.13
2022-12-01T09:12:45.833Z,928.14
2022-12-01T09:13:49.941Z,928.13
2022-12-01T09:14:45.873Z,928.12
2022-12-01T09:15:45.920Z,928.10
2022-12-01T09:16:45.912Z,928.08
2022-12-01T09:17:45.909Z,928.05
2022-12-01T09:18:45.923Z,928.05
2022-12-01T09:19:46.010Z,928.03
2022-12-01T09:20:45.951Z,927.98
2022-12-01T09:21:46.033Z,927.96
2022-12-01T09:22:45.984Z,927.93
2022-12-01T09:23:45.998Z,927.94
2022-12-01T09:24:46.020Z,927.97
2022-12-01T09:25:46.028Z,927.95
2022-12-01T09:26:46.075Z,927.94
2022-12-01T09:27:46.759Z,927.92
2022-12-01T09:28:46.073Z,927.96
2022-12-01T09:29:46.103Z,927.93
2022-12-01T09:30:46.102Z,927.94
2022-12-01T09:31:46.180Z,927.91
2022-12-01T09:32:46.139Z,927.89
2022-12-01T09:33:46.153Z,927.92
2022-12-01T09:34:46.164Z,927.94
2022-12-01T09:35:46.176Z,927.90
2022-12-01T09:36:46.190Z,927.94
2022-12-01T09:37:46.233Z,927.96
2022-12-01T09:38:46.229Z,927.92
2022-12-01T09:39:46.344Z,928.00
2022-12-01T09:40:46.249Z,928.06
2022-12-01T09:41:46.265Z,928.09
2022-12-01T09:42:46.281Z,928.10
2022-12-01T09:43:46.295Z,928.12
2022-12-01T09:44:46.317Z,928.08
2022-12-01T09:45:46.331Z,928.15
2022-12-01T09:46:46.375Z,928.18
2022-12-01T09:47:46.362Z,928.19
2022-12-01T09:48:46.385Z,928.18
2022-12-01T09:49:46.552Z,928.25
2022-12-01T09:50:46.407Z,928.19
2022-12-01T09:51:46.415Z,928.19
2022-12-01T09:52:46.428Z,928.15
2022-12-01T09:53:46.461Z,928.16
2022-12-01T09:54:46.466Z,928.18
2022-12-01T09:55:46.475Z,928.19
2022-12-01T09:56:46.506Z,928.17
2022-12-01T09:57:46.510Z,928.14
2022-12-01T09:58:46.524Z,928.12
2022-12-01T09:59:46.709Z,928.12
2022-12-01T10:00:46.608Z,928.14
2022-12-01T10:01:46.685Z,928.09
2022-12-01T10:02:46.577Z,928.09
2022-12-01T10:03:46.598Z,928.06
2022-12-01T10:04:46.606Z,928.04
2022-12-01T10:06:10.458Z,928.05
2022-12-01T10:06:46.636Z,928.02
2022-12-01T10:07:46.668Z,928.03
2022-12-01T10:08:46.673Z,927.99
2022-12-01T10:09:46.964Z,928.04
2022-12-01T10:10:46.708Z,928.05
2022-12-01T10:11:46.723Z,928.02
2022-12-01T10:12:46.732Z,928.01
2022-12-01T10:13:46.741Z,928.04
2022-12-01T10:14:46.766Z,928.08
2022-12-01T10:15:46.789Z,928.08
2022-12-01T10:16:46.795Z,928.17
2022-12-01T10:17:46.800Z,928.19
2022-12-01T10:18:46.822Z,928.16
2022-12-01T10:19:47.015Z,928.18
2022-12-01T10:20:46.852Z,928.11
2022-12-01T10:21:46.860Z,928.07
2022-12-01T10:22:46.873Z,928.08
2022-12-01T10:23:46.889Z,928.08
2022-12-01T10:24:46.911Z,928.10
2022-12-01T10:25:46.959Z,928.05
2022-12-01T10:26:46.943Z,928.09
2022-12-01T10:27:46.958Z,928.09
2022-12-01T10:28:46.967Z,928.13
2022-12-01T10:29:47.980Z,928.18
2022-12-01T10:30:46.994Z,928.25
2022-12-01T10:31:47.069Z,928.23
2022-12-01T10:32:47.030Z,928.34
2022-12-01T10:33:47.229Z,928.43
2022-12-01T10:34:47.051Z,928.51
2022-12-01T10:35:47.077Z,928.45
2022-12-01T10:36:47.093Z,928.45
2022-12-01T10:37:47.190Z,928.52
2022-12-01T10:38:47.111Z,928.63
2022-12-01T10:39:47.564Z,928.73
2022-12-01T10:40:47.142Z,928.73
2022-12-01T10:41:47.188Z,928.59
2022-12-01T10:42:47.281Z,928.49
2022-12-01T10:43:47.196Z,928.56
2022-12-01T10:44:47.209Z,928.71
2022-12-01T10:45:47.265Z,928.74
2022-12-01T10:46:47.231Z,928.74
2022-12-01T10:47:47.253Z,928.75
2022-12-01T10:48:47.268Z,928.74
2022-12-01T10:49:47.505Z,928.68
2022-12-01T10:50:47.303Z,928.63
2022-12-01T10:51:47.314Z,928.61
2022-12-01T10:52:47.319Z,928.56
2022-12-01T10:53:47.342Z,928.67
2022-12-01T10:54:47.351Z,928.74
2022-12-01T10:55:48.214Z,928.82
2022-12-01T10:56:47.377Z,928.89
2022-12-01T10:57:47.412Z,928.94
2022-12-01T10:58:47.409Z,928.94
2022-12-01T10:59:47.639Z,928.98
2022-12-01T11:01:03.115Z,929.06
2022-12-01T11:01:47.619Z,929.12
2022-12-01T11:02:47.698Z,929.20
2022-12-01T11:03:47.536Z,929.18
2022-12-01T11:04:47.508Z,929.14
2022-12-01T11:05:47.522Z,929.20
2022-12-01T11:06:47.537Z,929.20
2022-12-01T11:07:47.644Z,929.17
2022-12-01T11:08:47.567Z,929.15
2022-12-01T11:09:47.784Z,929.17
2022-12-01T11:10:47.594Z,929.14
2022-12-01T11:11:47.611Z,929.18
2022-12-01T11:12:47.625Z,929.14
2022-12-01T11:13:47.672Z,929.20
2022-12-01T11:14:47.654Z,929.21
2022-12-01T11:15:47.663Z,929.23
2022-12-01T11:16:47.738Z,929.24
2022-12-01T11:17:47.698Z,929.27
2022-12-01T11:18:47.767Z,929.25
2022-12-01T11:19:48.202Z,929.22
2022-12-01T11:20:47.841Z,929.26
2022-12-01T11:21:47.753Z,929.25
2022-12-01T11:22:47.766Z,929.28
2022-12-01T11:23:47.785Z,929.27
2022-12-01T11:24:47.797Z,929.28
2022-12-01T11:25:47.819Z,929.31
2022-12-01T11:26:47.834Z,929.30
2022-12-01T11:27:47.851Z,929.30
2022-12-01T11:28:47.872Z,929.26
2022-12-01T11:29:48.287Z,929.25
2022-12-01T11:30:51.276Z,929.20
2022-12-01T11:31:48.032Z,929.17
2022-12-01T11:32:47.925Z,929.18
2022-12-01T11:33:47.939Z,929.15
2022-12-01T11:34:48.279Z,929.14
2022-12-01T11:35:47.968Z,929.18
2022-12-01T11:36:47.975Z,929.21
2022-12-01T11:38:48.014Z,929.23
2022-12-01T11:39:48.513Z,929.24
2022-12-01T11:40:48.044Z,929.23
2022-12-01T11:41:48.050Z,929.28
2022-12-01T11:42:48.071Z,929.24
2022-12-01T11:44:00.778Z,929.24
2022-12-01T11:44:52.174Z,929.29
2022-12-01T11:45:48.224Z,929.27
2022-12-01T11:46:55.801Z,929.26
2022-12-01T11:47:48.140Z,929.31
2022-12-01T11:48:48.162Z,929.29
2022-12-01T11:49:48.727Z,929.27
2022-12-01T11:50:48.185Z,929.31
2022-12-01T11:51:48.200Z,929.25
2022-12-01T11:52:48.220Z,929.25
2022-12-01T11:53:48.229Z,929.26
2022-12-01T11:54:48.244Z,929.26
2022-12-01T11:55:48.268Z,929.28
2022-12-01T11:56:56.075Z,929.31
2022-12-01T11:57:48.298Z,929.28
2022-12-01T11:58:48.331Z,929.28
2022-12-01T11:59:48.570Z,929.28
2022-12-01T12:00:48.335Z,929.25
2022-12-01T12:01:48.367Z,929.29
2022-12-01T12:02:48.417Z,929.32
2022-12-01T12:03:48.444Z,929.30
2022-12-01T12:04:48.396Z,929.31
2022-12-01T12:05:48.409Z,929.36
2022-12-01T12:06:48.424Z,929.35
2022-12-01T12:07:48.521Z,929.35
2022-12-01T12:08:48.647Z,929.33
2022-12-01T12:09:48.791Z,929.37
2022-12-01T12:10:48.553Z,929.40
2022-12-01T12:11:48.509Z,929.34
2022-12-01T12:12:48.512Z,929.35
2022-12-01T12:13:48.536Z,929.38
2022-12-01T12:14:48.550Z,929.38
2022-12-01T12:16:48.574Z,929.48
2022-12-01T12:17:48.749Z,929.47
2022-12-01T12:18:48.604Z,929.53
2022-12-01T12:20:10.109Z,929.55
2022-12-01T12:20:48.636Z,929.58
2022-12-01T12:21:48.648Z,929.64
2022-12-01T12:22:54.958Z,929.62
2022-12-01T12:23:48.677Z,929.63
2022-12-01T12:24:48.699Z,929.67
2022-12-01T12:25:48.712Z,929.66
2022-12-01T12:26:48.731Z,929.69
2022-12-01T12:27:48.747Z,929.69
2022-12-01T12:28:48.765Z,929.75
2022-12-01T12:29:49.196Z,929.75
2022-12-01T12:30:48.918Z,929.72